Fort Worth, Texas
Current Conditions -  °F | °C
As of 6:53 PM on Saturday 25 Oct 2014 (Local Time) from KFTW Reporting Station
Clear Clear  
Wind Chill: 83°   Ceiling: Unl
Heat Index: 83°   Visibility: 10mi
Dew Point: 60°   Wind: 8mph
Humidity: 46%   Direction: 140°SE
Pressure: 30.04"   Gusts: NA
Location:  32.75°N, 97.33°W
Report Text: KFTW 252353Z 14007KT 10SM CLR 28/16 A3004 RMK AO2 SLP164 T02830156 10322 20283 56007
Loading
Personal Weather Stations






























Interactive Weather Map New forecast layout! Learn more

10-Day Weather Forecast

Advertisements
Track Severe Weather on mobile